METAR / TAF
Helsinki-Vantaa
HELSINKI/VANTAA
Metar
EFHK 221750Z 29012KT CAVOK 17/04 Q1009 NOSIG

17:50 UTC

Wind: 290° 12kt

Visibility:

Sky:

Temp: 17 deg C / 62.6 deg F

Dewpoint: 4 deg C / 39.2 deg F

Pressure: 1009 hPa

TAF
TAF EFHK 221728Z 2218/2318 28014KT CAVOK TEMPO 2310/2318 18010KT PROB30 2312/2318 FEW050CB
Helsinki, Malmi
HELSINKI/MALMI
Turku
TURKU/ABO
Metar
EFTU 221750Z AUTO 28012KT CAVOK 15/05 Q1011

17:50 UTC

Wind: 280° 12kt

Visibility:

Sky:

Temp: 15 deg C / 59 deg F

Dewpoint: 5 deg C / 41 deg F

Pressure: 1011 hPa

TAF
TAF EFTU 221728Z 2218/2318 26009KT CAVOK PROB30 2312/2318 FEW040CB
Tampere, Pirkkala
TAMPERE/PIRKKALA
Metar
EFTP 221750Z AUTO 26009KT CAVOK 12/07 Q1010

17:50 UTC

Wind: 260° 9kt

Visibility:

Sky:

Temp: 12 deg C / 53.6 deg F

Dewpoint: 7 deg C / 44.6 deg F

Pressure: 1010 hPa

TAF
TAF EFTP 221728Z 2218/2318 26009KT CAVOK PROB30 2301/2305 BKN006 BECMG 2306/2309 01010KT
Maarianhamina
MARIEHAMN/ALAND
Metar
EFMA 221750Z 34003KT CAVOK 15/06 Q1012

17:50 UTC

Wind: 340° 3kt

Visibility:

Sky:

Temp: 15 deg C / 59 deg F

Dewpoint: 6 deg C / 42.8 deg F

Pressure: 1012 hPa

TAF
TAF EFMA 221728Z 2218/2303 30005KT CAVOK
Pori
PORI (MIL/CIV)
Metar
EFPO 221750Z AUTO 25009KT 220V280 CAVOK 12/05 Q1010

17:50 UTC

Wind: 250° 9kt

Visibility:

Sky:

Temp: 12 deg C / 53.6 deg F

Dewpoint: 5 deg C / 41 deg F

Pressure: 1010 hPa

TAF
TAF EFPO 221728Z 2218/2221 25009KT CAVOK
Vaasa
VAASA
Metar
EFVA 221750Z AUTO 26005KT 9999 -RA FEW077/// OVC090/// 08/07 Q1009

17:50 UTC

Wind: 260° 5kt

Visibility: 9999 m

Sky: FEW 7700 ft

Temp: 8 deg C / 46.4 deg F

Dewpoint: 7 deg C / 44.6 deg F

Pressure: 1009 hPa

TAF
TAF EFVA 221733Z 2218/2318 25008KT CAVOK TEMPO 2218/2222 7000 SHRA FEW040CB BKN070 PROB30 2220/2224 3000 BR BKN003 BECMG 2308/2310 01012KT
Kruunupyy
KRUUNUPYY
Metar
EFKK 221750Z AUTO 36008KT CAVOK 16/00 Q1007

17:50 UTC

Wind: 360° 8kt

Visibility:

Sky:

Temp: 16 deg C / 60.8 deg F

Dewpoint: 0 deg C / 32 deg F

Pressure: 1007 hPa

TAF
TAF EFKK 221733Z 2218/2223 02009KT CAVOK
Jyväskylä, Tikkakoski
JYVASKYLA (MIL/C
Metar
EFJY 221750Z AUTO 27010KT 9999 -RA OVC048CB 17/09 Q1006

17:50 UTC

Wind: 270° 10kt

Visibility: 9999 m

Sky: OVC 4800 ft

Temp: 17 deg C / 62.6 deg F

Dewpoint: 9 deg C / 48.2 deg F

Pressure: 1006 hPa

TAF
TAF EFJY 221728Z 2218/2318 27005KT CAVOK TEMPO 2218/2222 FEW040CB BKN080 PROB30 2218/2222 6000 TSRA BECMG 2221/2224 BKN006 BECMG 2303/2306 01012KT CAVOK
Kuopio
KUOPIO (MIL/CIV)
Metar
EFKU 221750Z AUTO 33005KT CAVOK 17/03 Q1007

17:50 UTC

Wind: 330° 5kt

Visibility:

Sky:

Temp: 17 deg C / 62.6 deg F

Dewpoint: 3 deg C / 37.4 deg F

Pressure: 1007 hPa

TAF
TAF EFKU 221733Z 2218/2318 35004KT CAVOK PROB30 2223/2303 0500 FG VV002
Joensuu
JOENSUU
Metar
EFJO 221750Z 15007KT 120V190 CAVOK 12/04 Q1008

17:50 UTC

Wind: 150° 7kt

Visibility:

Sky:

Temp: 12 deg C / 53.6 deg F

Dewpoint: 4 deg C / 39.2 deg F

Pressure: 1008 hPa

TAF
TAF EFJO 221733Z 2218/2223 14007KT CAVOK
Halli
HALLI (FIN-AFB)
Metar
EFHA 221750Z AUTO 27013KT CAVOK 15/06 Q1008

17:50 UTC

Wind: 270° 13kt

Visibility:

Sky:

Temp: 15 deg C / 59 deg F

Dewpoint: 6 deg C / 42.8 deg F

Pressure: 1008 hPa

Utti
UTTI (FIN-AFB)
Metar
EFUT 221750Z AUTO 19005KT CAVOK 17/09 Q1007

17:50 UTC

Wind: 190° 5kt

Visibility:

Sky:

Temp: 17 deg C / 62.6 deg F

Dewpoint: 9 deg C / 48.2 deg F

Pressure: 1007 hPa

Mikkeli
MIKKELI
Metar
EFMI 221750Z AUTO 26007KT CAVOK 20/01 Q1006

17:50 UTC

Wind: 260° 7kt

Visibility:

Sky:

Temp: 20 deg C / 68 deg F

Dewpoint: 1 deg C / 33.8 deg F

Pressure: 1006 hPa

Savonlinna
SAVONLINNA (AUT)
Metar
EFSA 221750Z AUTO 12009KT 2000 HZ FEW217 12/04 Q1008

17:50 UTC

Wind: 120° 9kt

Visibility: 2000 m

Sky: FEW 21700 ft

Temp: 12 deg C / 53.6 deg F

Dewpoint: 4 deg C / 39.2 deg F

Pressure: 1008 hPa

TAF
TAF EFSA 221733Z 2218/2220 12009KT CAVOK
Lappeenranta
LAPPEENRANTA
Metar
EFLP 221750Z AUTO 20004KT 140V240 CAVOK 19/05 Q1007

17:50 UTC

Wind: 200° 4kt

Visibility:

Sky:

Temp: 19 deg C / 66.2 deg F

Dewpoint: 5 deg C / 41 deg F

Pressure: 1007 hPa

Oulu
OULU/ULEABORG
Metar
EFOU 221750Z AUTO 34006KT CAVOK 11/01 Q1008

17:50 UTC

Wind: 340° 6kt

Visibility:

Sky:

Temp: 11 deg C / 51.8 deg F

Dewpoint: 1 deg C / 33.8 deg F

Pressure: 1008 hPa

TAF
TAF EFOU 221733Z 2218/2318 34008KT CAVOK
Kemi
KEMI
Metar
EFKE 221750Z 25004KT CAVOK 11/M00 Q1008

17:50 UTC

Wind: 250° 4kt

Visibility:

Sky:

Temp: 11 deg C / 51.8 deg F

Dewpoint: 0 deg C / 32 deg F

Pressure: 1008 hPa

TAF
TAF EFKE 221733Z 2218/2221 27005KT CAVOK
Rovaniemi
ROVANIEMI (CIV/M
Metar
EFRO 221750Z AUTO 36004KT CAVOK 11/01 Q1008

17:50 UTC

Wind: 360° 4kt

Visibility:

Sky:

Temp: 11 deg C / 51.8 deg F

Dewpoint: 1 deg C / 33.8 deg F

Pressure: 1008 hPa

TAF
TAF EFRO 221733Z 2218/2318 34004KT 9999 BKN045
Enontekiö
ENONTEKIO
Metar
EFET 221750Z AUTO 30007KT CAVOK 07/00 Q1008

17:50 UTC

Wind: 300° 7kt

Visibility:

Sky:

Temp: 7 deg C / 44.6 deg F

Dewpoint: 0 deg C / 32 deg F

Pressure: 1008 hPa

Ivalo
IVALO
Metar
EFIV 221750Z AUTO 24005KT 9999 BKN042 08/M01 Q1007

17:50 UTC

Wind: 240° 5kt

Visibility: 9999 m

Sky: BKN 4200 ft

Temp: 8 deg C / 46.4 deg F

Dewpoint: -1 deg C / 30.2 deg F

Pressure: 1007 hPa

TAF
TAF EFIV 221122Z 2212/2216 29008KT 9999 BKN045
Kittilä
KITTILA
Metar
EFKT 221750Z AUTO 29005KT 240V320 9999 BKN045 09/00 Q1008

17:50 UTC

Wind: 290° 5kt

Visibility: 9999 m

Sky: BKN 4500 ft

Temp: 9 deg C / 48.2 deg F

Dewpoint: 0 deg C / 32 deg F

Pressure: 1008 hPa

TAF
TAF EFKT 221424Z 2215/2218 31008KT 9999 BKN040
Kuusamo
KUUSAMO
Metar
EFKS 221750Z AUTO 00000KT CAVOK 08/M01 Q1008

17:50 UTC

Wind: 0° 0kt

Visibility:

Sky:

Temp: 8 deg C / 46.4 deg F

Dewpoint: -1 deg C / 30.2 deg F

Pressure: 1008 hPa

Kajaani
KAJAANI
Metar
EFKI 221750Z AUTO 01006KT CAVOK 13/02 Q1008

17:50 UTC

Wind: 10° 6kt

Visibility:

Sky:

Temp: 13 deg C / 55.4 deg F

Dewpoint: 2 deg C / 35.6 deg F

Pressure: 1008 hPa

TAF
TAF EFKI 221733Z 2218/2221 34004KT CAVOK
Varkaus
VARKAUS
Seinäjoki
SEINAJOKI-ILMAJO
Metar
EFSI 221750Z AUTO 25004KT 200V300 CAVOK 11/06 Q1008

17:50 UTC

Wind: 250° 4kt

Visibility:

Sky:

Temp: 11 deg C / 51.8 deg F

Dewpoint: 6 deg C / 42.8 deg F

Pressure: 1008 hPa